sensor_id;sensor_type;location;lat;lon;timestamp;P1;durP1;ratioP1;P2;durP2;ratioP2
45382;SDS011;42455;51.660;5.824;2022-07-17T00:04:34;4.0;;;2.0;;
45382;SDS011;42455;51.660;5.824;2022-07-17T00:09:40;4.0;;;2.0;;
45382;SDS011;42455;51.660;5.824;2022-07-17T00:14:46;3.0;;;2.0;;
45382;SDS011;42455;51.660;5.824;2022-07-17T00:19:53;4.0;;;3.0;;
45382;SDS011;42455;51.660;5.824;2022-07-17T00:24:59;4.0;;;2.0;;
45382;SDS011;42455;51.660;5.824;2022-07-17T00:30:05;4.0;;;2.0;;
45382;SDS011;42455;51.660;5.824;2022-07-17T00:35:12;4.0;;;3.0;;
45382;SDS011;42455;51.660;5.824;2022-07-17T00:40:18;4.0;;;2.0;;
45382;SDS011;42455;51.660;5.824;2022-07-17T00:45:24;5.0;;;3.0;;
45382;SDS011;42455;51.660;5.824;2022-07-17T00:50:31;3.0;;;2.0;;
45382;SDS011;42455;51.660;5.824;2022-07-17T00:55:35;4.0;;;2.0;;
45382;SDS011;42455;51.660;5.824;2022-07-17T01:00:41;4.0;;;2.0;;
45382;SDS011;42455;51.660;5.824;2022-07-17T01:05:48;3.5;;;2.0;;
45382;SDS011;42455;51.660;5.824;2022-07-17T01:10:54;3.0;;;2.0;;
45382;SDS011;42455;51.660;5.824;2022-07-17T01:16:00;3.5;;;2.0;;
45382;SDS011;42455;51.660;5.824;2022-07-17T01:21:06;3.0;;;2.0;;
45382;SDS011;42455;51.660;5.824;2022-07-17T01:26:12;3.0;;;2.0;;
45382;SDS011;42455;51.660;5.824;2022-07-17T01:31:19;3.0;;;2.0;;
45382;SDS011;42455;51.660;5.824;2022-07-17T01:36:25;4.0;;;2.0;;
45382;SDS011;42455;51.660;5.824;2022-07-17T01:41:31;4.0;;;2.0;;
45382;SDS011;42455;51.660;5.824;2022-07-17T01:46:37;4.0;;;3.0;;
45382;SDS011;42455;51.660;5.824;2022-07-17T01:51:44;5.0;;;3.0;;
45382;SDS011;42455;51.660;5.824;2022-07-17T01:56:50;4.0;;;2.0;;
45382;SDS011;42455;51.660;5.824;2022-07-17T02:01:56;5.0;;;2.0;;
45382;SDS011;42455;51.660;5.824;2022-07-17T02:07:03;4.0;;;2.0;;
45382;SDS011;42455;51.660;5.824;2022-07-17T02:12:08;4.0;;;3.0;;
45382;SDS011;42455;51.660;5.824;2022-07-17T02:17:15;5.0;;;3.0;;
45382;SDS011;42455;51.660;5.824;2022-07-17T02:22:21;6.0;;;2.0;;
45382;SDS011;42455;51.660;5.824;2022-07-17T02:27:27;5.0;;;3.0;;
45382;SDS011;42455;51.660;5.824;2022-07-17T02:32:33;4.0;;;2.0;;
45382;SDS011;42455;51.660;5.824;2022-07-17T02:37:40;4.0;;;3.0;;
45382;SDS011;42455;51.660;5.824;2022-07-17T02:42:46;4.0;;;2.0;;
45382;SDS011;42455;51.660;5.824;2022-07-17T02:47:52;3.5;;;2.0;;
45382;SDS011;42455;51.660;5.824;2022-07-17T02:52:58;4.0;;;2.0;;
45382;SDS011;42455;51.660;5.824;2022-07-17T02:58:04;5.0;;;3.0;;
45382;SDS011;42455;51.660;5.824;2022-07-17T03:03:10;3.0;;;3.0;;
45382;SDS011;42455;51.660;5.824;2022-07-17T03:08:17;4.0;;;2.0;;
45382;SDS011;42455;51.660;5.824;2022-07-17T03:13:23;3.0;;;2.0;;
45382;SDS011;42455;51.660;5.824;2022-07-17T03:18:29;3.0;;;2.0;;
45382;SDS011;42455;51.660;5.824;2022-07-17T03:23:35;4.0;;;2.0;;
45382;SDS011;42455;51.660;5.824;2022-07-17T03:28:42;3.0;;;2.0;;
45382;SDS011;42455;51.660;5.824;2022-07-17T03:33:48;4.0;;;3.0;;
45382;SDS011;42455;51.660;5.824;2022-07-17T03:38:54;3.5;;;3.0;;
45382;SDS011;42455;51.660;5.824;2022-07-17T03:44:00;4.0;;;2.0;;
45382;SDS011;42455;51.660;5.824;2022-07-17T03:49:06;4.0;;;3.0;;
45382;SDS011;42455;51.660;5.824;2022-07-17T03:54:13;4.0;;;2.0;;
45382;SDS011;42455;51.660;5.824;2022-07-17T03:59:19;5.0;;;3.0;;
45382;SDS011;42455;51.660;5.824;2022-07-17T04:04:25;4.0;;;3.0;;
45382;SDS011;42455;51.660;5.824;2022-07-17T04:09:31;3.0;;;3.0;;
45382;SDS011;42455;51.660;5.824;2022-07-17T04:14:37;4.0;;;3.0;;
45382;SDS011;42455;51.660;5.824;2022-07-17T04:19:44;3.0;;;3.0;;
45382;SDS011;42455;51.660;5.824;2022-07-17T04:24:50;5.0;;;3.0;;
45382;SDS011;42455;51.660;5.824;2022-07-17T04:29:56;4.0;;;3.0;;
45382;SDS011;42455;51.660;5.824;2022-07-17T04:35:02;4.0;;;3.0;;
45382;SDS011;42455;51.660;5.824;2022-07-17T04:40:07;4.0;;;3.0;;
45382;SDS011;42455;51.660;5.824;2022-07-17T04:45:14;5.0;;;3.0;;
45382;SDS011;42455;51.660;5.824;2022-07-17T04:50:20;5.0;;;3.0;;
45382;SDS011;42455;51.660;5.824;2022-07-17T04:55:26;6.0;;;4.0;;
45382;SDS011;42455;51.660;5.824;2022-07-17T05:00:33;5.0;;;4.0;;
45382;SDS011;42455;51.660;5.824;2022-07-17T05:05:39;4.0;;;4.0;;
45382;SDS011;42455;51.660;5.824;2022-07-17T05:10:45;5.0;;;4.0;;
45382;SDS011;42455;51.660;5.824;2022-07-17T05:15:51;7.0;;;5.0;;
45382;SDS011;42455;51.660;5.824;2022-07-17T05:20:57;9.0;;;4.0;;
45382;SDS011;42455;51.660;5.824;2022-07-17T05:26:03;6.0;;;4.0;;
45382;SDS011;42455;51.660;5.824;2022-07-17T05:31:10;6.5;;;4.0;;
45382;SDS011;42455;51.660;5.824;2022-07-17T05:36:16;6.0;;;4.0;;
45382;SDS011;42455;51.660;5.824;2022-07-17T05:41:22;5.0;;;4.0;;
45382;SDS011;42455;51.660;5.824;2022-07-17T05:46:28;4.0;;;4.0;;
45382;SDS011;42455;51.660;5.824;2022-07-17T05:51:34;5.0;;;4.0;;
45382;SDS011;42455;51.660;5.824;2022-07-17T05:56:41;6.0;;;5.0;;
45382;SDS011;42455;51.660;5.824;2022-07-17T06:01:47;5.0;;;4.0;;
45382;SDS011;42455;51.660;5.824;2022-07-17T06:06:53;5.0;;;4.0;;
45382;SDS011;42455;51.660;5.824;2022-07-17T06:11:59;5.0;;;3.0;;
45382;SDS011;42455;51.660;5.824;2022-07-17T06:17:06;5.0;;;3.0;;
45382;SDS011;42455;51.660;5.824;2022-07-17T06:22:12;4.0;;;3.0;;
45382;SDS011;42455;51.660;5.824;2022-07-17T06:27:18;5.0;;;2.0;;
45382;SDS011;42455;51.660;5.824;2022-07-17T06:32:24;4.0;;;2.0;;
45382;SDS011;42455;51.660;5.824;2022-07-17T06:37:30;4.0;;;2.0;;
45382;SDS011;42455;51.660;5.824;2022-07-17T06:42:37;4.0;;;2.0;;
45382;SDS011;42455;51.660;5.824;2022-07-17T06:47:43;4.0;;;2.0;;
45382;SDS011;42455;51.660;5.824;2022-07-17T06:52:49;5.0;;;2.0;;
45382;SDS011;42455;51.660;5.824;2022-07-17T06:57:55;5.0;;;2.0;;
45382;SDS011;42455;51.660;5.824;2022-07-17T07:03:01;5.0;;;2.0;;
45382;SDS011;42455;51.660;5.824;2022-07-17T07:08:08;4.0;;;2.0;;
45382;SDS011;42455;51.660;5.824;2022-07-17T07:13:14;3.0;;;2.0;;
45382;SDS011;42455;51.660;5.824;2022-07-17T07:18:20;3.0;;;2.0;;
45382;SDS011;42455;51.660;5.824;2022-07-17T07:23:26;3.0;;;2.0;;
45382;SDS011;42455;51.660;5.824;2022-07-17T07:28:32;4.0;;;2.0;;
45382;SDS011;42455;51.660;5.824;2022-07-17T07:33:39;4.0;;;2.0;;
45382;SDS011;42455;51.660;5.824;2022-07-17T07:38:45;4.0;;;2.0;;
45382;SDS011;42455;51.660;5.824;2022-07-17T07:43:51;5.0;;;2.0;;
45382;SDS011;42455;51.660;5.824;2022-07-17T07:48:57;4.0;;;2.0;;
45382;SDS011;42455;51.660;5.824;2022-07-17T07:54:03;4.0;;;2.0;;
45382;SDS011;42455;51.660;5.824;2022-07-17T07:59:10;2.5;;;1.0;;
45382;SDS011;42455;51.660;5.824;2022-07-17T08:04:16;5.0;;;2.0;;
45382;SDS011;42455;51.660;5.824;2022-07-17T08:09:22;6.0;;;2.0;;
45382;SDS011;42455;51.660;5.824;2022-07-17T08:14:28;4.0;;;2.0;;
45382;SDS011;42455;51.660;5.824;2022-07-17T08:19:35;4.0;;;2.0;;
45382;SDS011;42455;51.660;5.824;2022-07-17T08:24:41;4.0;;;2.0;;
45382;SDS011;42455;51.660;5.824;2022-07-17T08:29:47;4.5;;;2.0;;
45382;SDS011;42455;51.660;5.824;2022-07-17T08:34:54;5.0;;;2.0;;
45382;SDS011;42455;51.660;5.824;2022-07-17T08:39:59;4.5;;;2.0;;
45382;SDS011;42455;51.660;5.824;2022-07-17T08:45:06;4.0;;;2.0;;
45382;SDS011;42455;51.660;5.824;2022-07-17T08:50:12;4.5;;;2.0;;
45382;SDS011;42455;51.660;5.824;2022-07-17T08:55:18;5.0;;;2.0;;
45382;SDS011;42455;51.660;5.824;2022-07-17T09:00:26;3.0;;;2.0;;
45382;SDS011;42455;51.660;5.824;2022-07-17T09:05:31;3.0;;;2.0;;
45382;SDS011;42455;51.660;5.824;2022-07-17T09:10:38;4.0;;;2.0;;
45382;SDS011;42455;51.660;5.824;2022-07-17T09:15:43;4.0;;;2.0;;
45382;SDS011;42455;51.660;5.824;2022-07-17T09:20:50;2.5;;;2.0;;
45382;SDS011;42455;51.660;5.824;2022-07-17T09:25:56;3.0;;;2.0;;
45382;SDS011;42455;51.660;5.824;2022-07-17T09:31:01;4.0;;;1.0;;
45382;SDS011;42455;51.660;5.824;2022-07-17T09:36:08;3.0;;;1.0;;
45382;SDS011;42455;51.660;5.824;2022-07-17T09:41:14;4.0;;;1.0;;
45382;SDS011;42455;51.660;5.824;2022-07-17T09:46:21;4.0;;;1.0;;
45382;SDS011;42455;51.660;5.824;2022-07-17T09:51:27;2.5;;;1.0;;
45382;SDS011;42455;51.660;5.824;2022-07-17T09:56:33;4.0;;;2.0;;
45382;SDS011;42455;51.660;5.824;2022-07-17T10:01:41;4.0;;;2.0;;
45382;SDS011;42455;51.660;5.824;2022-07-17T10:06:44;4.0;;;1.0;;
45382;SDS011;42455;51.660;5.824;2022-07-17T10:11:50;4.0;;;2.0;;
45382;SDS011;42455;51.660;5.824;2022-07-17T10:17:05;5.0;;;2.0;;
45382;SDS011;42455;51.660;5.824;2022-07-17T10:22:04;4.0;;;2.0;;
45382;SDS011;42455;51.660;5.824;2022-07-17T10:27:16;4.0;;;1.0;;
45382;SDS011;42455;51.660;5.824;2022-07-17T10:32:19;2.5;;;1.0;;
45382;SDS011;42455;51.660;5.824;2022-07-17T10:37:24;3.0;;;1.0;;
45382;SDS011;42455;51.660;5.824;2022-07-17T10:42:41;3.0;;;1.0;;
45382;SDS011;42455;51.660;5.824;2022-07-17T10:47:44;3.0;;;1.0;;
45382;SDS011;42455;51.660;5.824;2022-07-17T10:52:40;2.0;;;1.0;;
45382;SDS011;42455;51.660;5.824;2022-07-17T10:57:46;3.0;;;1.0;;
45382;SDS011;42455;51.660;5.824;2022-07-17T11:02:52;2.0;;;1.0;;
45382;SDS011;42455;51.660;5.824;2022-07-17T11:07:58;2.0;;;1.0;;
45382;SDS011;42455;51.660;5.824;2022-07-17T11:13:10;2.0;;;1.0;;
45382;SDS011;42455;51.660;5.824;2022-07-17T11:18:12;3.0;;;1.0;;
45382;SDS011;42455;51.660;5.824;2022-07-17T11:23:17;2.0;;;1.0;;
45382;SDS011;42455;51.660;5.824;2022-07-17T11:28:26;2.0;;;1.0;;
45382;SDS011;42455;51.660;5.824;2022-07-17T11:33:29;2.0;;;1.0;;
45382;SDS011;42455;51.660;5.824;2022-07-17T11:38:36;3.0;;;1.0;;
45382;SDS011;42455;51.660;5.824;2022-07-17T11:43:42;2.0;;;1.0;;
45382;SDS011;42455;51.660;5.824;2022-07-17T11:48:48;2.0;;;1.0;;
45382;SDS011;42455;51.660;5.824;2022-07-17T11:54:03;2.0;;;1.0;;
45382;SDS011;42455;51.660;5.824;2022-07-17T11:59:01;3.0;;;1.0;;
45382;SDS011;42455;51.660;5.824;2022-07-17T12:04:07;3.0;;;1.0;;
45382;SDS011;42455;51.660;5.824;2022-07-17T12:09:13;2.0;;;1.0;;
45382;SDS011;42455;51.660;5.824;2022-07-17T12:14:19;3.0;;;1.0;;
45382;SDS011;42455;51.660;5.824;2022-07-17T12:19:25;2.0;;;1.0;;
45382;SDS011;42455;51.660;5.824;2022-07-17T12:24:32;3.0;;;1.0;;
45382;SDS011;42455;51.660;5.824;2022-07-17T12:29:38;2.0;;;1.0;;
45382;SDS011;42455;51.660;5.824;2022-07-17T12:34:45;3.0;;;1.0;;
45382;SDS011;42455;51.660;5.824;2022-07-17T12:44:57;3.0;;;1.0;;
45382;SDS011;42455;51.660;5.824;2022-07-17T12:50:03;2.0;;;1.0;;
45382;SDS011;42455;51.660;5.824;2022-07-17T12:55:09;2.0;;;1.0;;
45382;SDS011;42455;51.660;5.824;2022-07-17T13:00:15;2.0;;;1.0;;
45382;SDS011;42455;51.660;5.824;2022-07-17T13:05:22;2.0;;;1.0;;
45382;SDS011;42455;51.660;5.824;2022-07-17T13:10:28;2.0;;;1.0;;
45382;SDS011;42455;51.660;5.824;2022-07-17T13:15:34;3.0;;;1.0;;
45382;SDS011;42455;51.660;5.824;2022-07-17T13:20:40;2.0;;;1.0;;
45382;SDS011;42455;51.660;5.824;2022-07-17T13:25:47;2.5;;;1.0;;
45382;SDS011;42455;51.660;5.824;2022-07-17T13:30:53;2.0;;;1.0;;
45382;SDS011;42455;51.660;5.824;2022-07-17T13:35:59;2.0;;;1.0;;
45382;SDS011;42455;51.660;5.824;2022-07-17T13:41:05;2.0;;;1.0;;
45382;SDS011;42455;51.660;5.824;2022-07-17T13:51:18;3.0;;;1.0;;
45382;SDS011;42455;51.660;5.824;2022-07-17T13:56:24;2.0;;;1.0;;
45382;SDS011;42455;51.660;5.824;2022-07-17T14:01:30;3.0;;;1.0;;
45382;SDS011;42455;51.660;5.824;2022-07-17T14:06:36;2.0;;;1.0;;
45382;SDS011;42455;51.660;5.824;2022-07-17T14:11:43;2.0;;;1.0;;
45382;SDS011;42455;51.660;5.824;2022-07-17T14:16:49;2.0;;;1.0;;
45382;SDS011;42455;51.660;5.824;2022-07-17T14:21:55;2.0;;;1.0;;
45382;SDS011;42455;51.660;5.824;2022-07-17T14:27:01;2.0;;;1.0;;
45382;SDS011;42455;51.660;5.824;2022-07-17T14:32:07;2.0;;;1.0;;
45382;SDS011;42455;51.660;5.824;2022-07-17T14:37:14;1.0;;;1.0;;
45382;SDS011;42455;51.660;5.824;2022-07-17T14:47:26;3.0;;;1.0;;
45382;SDS011;42455;51.660;5.824;2022-07-17T14:52:32;1.0;;;1.0;;
45382;SDS011;42455;51.660;5.824;2022-07-17T14:57:38;1.0;;;1.0;;
45382;SDS011;42455;51.660;5.824;2022-07-17T15:02:45;1.0;;;1.0;;
45382;SDS011;42455;51.660;5.824;2022-07-17T15:07:51;2.0;;;1.0;;
45382;SDS011;42455;51.660;5.824;2022-07-17T15:12:57;1.0;;;1.0;;
45382;SDS011;42455;51.660;5.824;2022-07-17T15:18:03;1.0;;;1.0;;
45382;SDS011;42455;51.660;5.824;2022-07-17T15:23:10;2.0;;;1.0;;
45382;SDS011;42455;51.660;5.824;2022-07-17T15:28:16;1.0;;;1.0;;
45382;SDS011;42455;51.660;5.824;2022-07-17T15:33:22;1.0;;;1.0;;
45382;SDS011;42455;51.660;5.824;2022-07-17T15:38:27;3.0;;;1.0;;
45382;SDS011;42455;51.660;5.824;2022-07-17T15:43:33;1.0;;;1.0;;
45382;SDS011;42455;51.660;5.824;2022-07-17T15:48:40;1.0;;;1.0;;
45382;SDS011;42455;51.660;5.824;2022-07-17T15:53:46;2.0;;;1.0;;
45382;SDS011;42455;51.660;5.824;2022-07-17T15:58:52;2.0;;;1.0;;
45382;SDS011;42455;51.660;5.824;2022-07-17T16:03:58;1.5;;;1.0;;
45382;SDS011;42455;51.660;5.824;2022-07-17T16:09:04;2.0;;;1.0;;
45382;SDS011;42455;51.660;5.824;2022-07-17T16:14:11;2.0;;;1.0;;
45382;SDS011;42455;51.660;5.824;2022-07-17T16:19:17;1.0;;;1.0;;
45382;SDS011;42455;51.660;5.824;2022-07-17T16:24:23;2.0;;;1.0;;
45382;SDS011;42455;51.660;5.824;2022-07-17T16:29:29;2.0;;;1.0;;
45382;SDS011;42455;51.660;5.824;2022-07-17T16:34:35;1.0;;;1.0;;
45382;SDS011;42455;51.660;5.824;2022-07-17T16:39:42;1.0;;;1.0;;
45382;SDS011;42455;51.660;5.824;2022-07-17T16:44:48;2.0;;;1.0;;
45382;SDS011;42455;51.660;5.824;2022-07-17T16:49:54;1.0;;;1.0;;
45382;SDS011;42455;51.660;5.824;2022-07-17T16:55:00;1.0;;;1.0;;
45382;SDS011;42455;51.660;5.824;2022-07-17T17:00:06;2.0;;;1.0;;
45382;SDS011;42455;51.660;5.824;2022-07-17T17:05:13;1.0;;;1.0;;
45382;SDS011;42455;51.660;5.824;2022-07-17T17:10:19;2.0;;;1.0;;
45382;SDS011;42455;51.660;5.824;2022-07-17T17:15:25;2.0;;;1.0;;
45382;SDS011;42455;51.660;5.824;2022-07-17T17:20:31;1.0;;;1.0;;
45382;SDS011;42455;51.660;5.824;2022-07-17T17:25:38;2.0;;;1.0;;
45382;SDS011;42455;51.660;5.824;2022-07-17T17:30:44;2.5;;;1.0;;
45382;SDS011;42455;51.660;5.824;2022-07-17T17:35:50;2.0;;;1.0;;
45382;SDS011;42455;51.660;5.824;2022-07-17T17:40:56;3.0;;;1.0;;
45382;SDS011;42455;51.660;5.824;2022-07-17T17:46:02;3.0;;;2.0;;
45382;SDS011;42455;51.660;5.824;2022-07-17T17:51:09;6.0;;;2.0;;
45382;SDS011;42455;51.660;5.824;2022-07-17T17:56:15;4.0;;;2.0;;
45382;SDS011;42455;51.660;5.824;2022-07-17T18:01:21;2.0;;;1.0;;
45382;SDS011;42455;51.660;5.824;2022-07-17T18:06:27;2.0;;;2.0;;
45382;SDS011;42455;51.660;5.824;2022-07-17T18:11:33;3.0;;;2.0;;
45382;SDS011;42455;51.660;5.824;2022-07-17T18:16:40;4.0;;;2.0;;
45382;SDS011;42455;51.660;5.824;2022-07-17T18:21:46;2.5;;;2.0;;
45382;SDS011;42455;51.660;5.824;2022-07-17T18:26:52;2.0;;;2.0;;
45382;SDS011;42455;51.660;5.824;2022-07-17T18:31:58;3.0;;;2.0;;
45382;SDS011;42455;51.660;5.824;2022-07-17T18:37:05;4.0;;;2.0;;
45382;SDS011;42455;51.660;5.824;2022-07-17T18:42:11;5.0;;;2.0;;
45382;SDS011;42455;51.660;5.824;2022-07-17T18:47:17;3.0;;;1.0;;
45382;SDS011;42455;51.660;5.824;2022-07-17T18:52:23;6.0;;;3.0;;
45382;SDS011;42455;51.660;5.824;2022-07-17T19:02:36;3.0;;;2.0;;
45382;SDS011;42455;51.660;5.824;2022-07-17T19:07:42;4.0;;;2.0;;
45382;SDS011;42455;51.660;5.824;2022-07-17T19:12:48;3.5;;;2.0;;
45382;SDS011;42455;51.660;5.824;2022-07-17T19:17:54;6.5;;;3.0;;
45382;SDS011;42455;51.660;5.824;2022-07-17T19:23:00;4.0;;;2.0;;
45382;SDS011;42455;51.660;5.824;2022-07-17T19:28:07;6.0;;;3.0;;
45382;SDS011;42455;51.660;5.824;2022-07-17T19:33:13;3.0;;;2.0;;
45382;SDS011;42455;51.660;5.824;2022-07-17T19:38:19;3.0;;;2.0;;
45382;SDS011;42455;51.660;5.824;2022-07-17T19:43:25;5.0;;;2.0;;
45382;SDS011;42455;51.660;5.824;2022-07-17T19:48:32;8.0;;;4.0;;
45382;SDS011;42455;51.660;5.824;2022-07-17T19:53:38;8.0;;;4.0;;
45382;SDS011;42455;51.660;5.824;2022-07-17T19:58:44;5.0;;;2.5;;
45382;SDS011;42455;51.660;5.824;2022-07-17T20:03:50;3.0;;;2.0;;
45382;SDS011;42455;51.660;5.824;2022-07-17T20:08:56;3.0;;;2.0;;
45382;SDS011;42455;51.660;5.824;2022-07-17T20:14:03;3.0;;;2.0;;
45382;SDS011;42455;51.660;5.824;2022-07-17T20:19:09;4.0;;;2.0;;
45382;SDS011;42455;51.660;5.824;2022-07-17T20:24:15;4.0;;;2.0;;
45382;SDS011;42455;51.660;5.824;2022-07-17T20:29:21;6.0;;;2.0;;
45382;SDS011;42455;51.660;5.824;2022-07-17T20:39:34;4.0;;;2.0;;
45382;SDS011;42455;51.660;5.824;2022-07-17T20:44:40;4.0;;;2.0;;
45382;SDS011;42455;51.660;5.824;2022-07-17T20:49:46;3.0;;;2.0;;
45382;SDS011;42455;51.660;5.824;2022-07-17T20:54:52;3.0;;;2.0;;
45382;SDS011;42455;51.660;5.824;2022-07-17T20:59:59;3.5;;;2.0;;
45382;SDS011;42455;51.660;5.824;2022-07-17T21:05:05;4.0;;;2.0;;
45382;SDS011;42455;51.660;5.824;2022-07-17T21:10:10;3.0;;;2.0;;
45382;SDS011;42455;51.660;5.824;2022-07-17T21:15:16;5.0;;;2.0;;
45382;SDS011;42455;51.660;5.824;2022-07-17T21:20:22;3.0;;;2.0;;
45382;SDS011;42455;51.660;5.824;2022-07-17T21:25:29;4.0;;;2.0;;
45382;SDS011;42455;51.660;5.824;2022-07-17T21:30:35;4.0;;;3.0;;
45382;SDS011;42455;51.660;5.824;2022-07-17T21:35:41;4.0;;;3.0;;
45382;SDS011;42455;51.660;5.824;2022-07-17T21:40:46;4.0;;;3.0;;
45382;SDS011;42455;51.660;5.824;2022-07-17T21:45:52;5.0;;;3.0;;
45382;SDS011;42455;51.660;5.824;2022-07-17T21:50:59;4.0;;;3.0;;
45382;SDS011;42455;51.660;5.824;2022-07-17T21:56:05;4.0;;;3.0;;
45382;SDS011;42455;51.660;5.824;2022-07-17T22:01:11;4.0;;;3.0;;
45382;SDS011;42455;51.660;5.824;2022-07-17T22:06:17;3.5;;;3.0;;
45382;SDS011;42455;51.660;5.824;2022-07-17T22:11:24;4.0;;;3.0;;
45382;SDS011;42455;51.660;5.824;2022-07-17T22:16:30;4.0;;;3.0;;
45382;SDS011;42455;51.660;5.824;2022-07-17T22:21:36;4.0;;;3.0;;
45382;SDS011;42455;51.660;5.824;2022-07-17T22:31:48;4.0;;;4.0;;
45382;SDS011;42455;51.660;5.824;2022-07-17T22:36:54;5.0;;;3.0;;
45382;SDS011;42455;51.660;5.824;2022-07-17T22:42:01;4.0;;;3.0;;
45382;SDS011;42455;51.660;5.824;2022-07-17T22:47:07;6.0;;;4.0;;
45382;SDS011;42455;51.660;5.824;2022-07-17T22:52:13;6.0;;;4.0;;
45382;SDS011;42455;51.660;5.824;2022-07-17T22:57:19;4.0;;;4.0;;
45382;SDS011;42455;51.660;5.824;2022-07-17T23:02:25;4.0;;;4.0;;
45382;SDS011;42455;51.660;5.824;2022-07-17T23:07:32;5.0;;;4.0;;
45382;SDS011;42455;51.660;5.824;2022-07-17T23:12:38;6.0;;;4.0;;
45382;SDS011;42455;51.660;5.824;2022-07-17T23:17:44;4.0;;;4.0;;
45382;SDS011;42455;51.660;5.824;2022-07-17T23:22:50;5.0;;;4.0;;
45382;SDS011;42455;51.660;5.824;2022-07-17T23:27:57;4.0;;;3.0;;
45382;SDS011;42455;51.660;5.824;2022-07-17T23:33:03;4.0;;;4.0;;
45382;SDS011;42455;51.660;5.824;2022-07-17T23:38:09;6.0;;;3.0;;
45382;SDS011;42455;51.660;5.824;2022-07-17T23:43:15;5.0;;;3.0;;
45382;SDS011;42455;51.660;5.824;2022-07-17T23:48:21;4.0;;;3.0;;
45382;SDS011;42455;51.660;5.824;2022-07-17T23:53:28;4.0;;;4.0;;
45382;SDS011;42455;51.660;5.824;2022-07-17T23:58:34;6.0;;;3.0;;
